Time;durP1;ratioP1;P1;durP2;ratioP2;P2;SDS_P1;SDS_P2;PMS_P1;PMS_P2;Temp;Humidity;BMP_temperature;BMP_pressure;BME280_temperature;BME280_humidity;BME280_pressure;Samples;Min_cycle;Max_cycle;Signal;HPM_P1;HPM_P2
2022/07/30 00:02:12;;;;;;;5.63;2.05;;;25.00;67.20;;;;;;5107431;28;20115;-81
2022/07/30 00:04:38;;;;;;;3.30;2.00;;;25.00;67.20;;;;;;5106784;28;20094;-80
2022/07/30 00:07:04;;;;;;;4.38;1.65;;;24.90;67.60;;;;;;5106803;28;20051;-81
2022/07/30 00:09:29;;;;;;;2.47;1.42;;;24.90;68.20;;;;;;5088740;28;20059;-81
2022/07/30 00:11:55;;;;;;;9.65;1.75;;;24.80;68.60;;;;;;5107508;28;20423;-83
2022/07/30 00:14:21;;;;;;;18.45;4.03;;;24.70;74.50;;;;;;5088620;28;20027;-83
2022/07/30 00:16:46;;;;;;;15.15;5.60;;;24.40;82.40;;;;;;5089284;28;20020;-85
2022/07/30 00:19:12;;;;;;;12.05;4.20;;;23.70;89.10;;;;;;5090208;28;20371;-83
2022/07/30 00:21:38;;;;;;;14.40;5.00;;;22.80;96.30;;;;;;5090160;28;20030;-82
2022/07/30 00:24:04;;;;;;;10.93;4.22;;;22.10;99.90;;;;;;5088659;28;20028;-81
2022/07/30 00:26:31;;;;;;;8.65;3.70;;;21.60;99.90;;;;;;5088586;28;20028;-80
2022/07/30 00:28:56;;;;;;;8.75;4.32;;;21.30;99.90;;;;;;5088023;28;20035;-80
2022/07/30 00:31:22;;;;;;;9.10;4.55;;;21.10;99.90;;;;;;5088546;28;20038;-80
2022/07/30 00:33:48;;;;;;;12.85;4.32;;;21.00;99.90;;;;;;5106452;28;20028;-80
2022/07/30 00:36:13;;;;;;;4.78;3.40;;;20.90;99.90;;;;;;5090550;28;20032;-79
2022/07/30 00:38:39;;;;;;;5.68;3.72;;;20.80;99.90;;;;;;5091958;28;20042;-80
2022/07/30 00:41:05;;;;;;;7.50;3.50;;;20.80;99.90;;;;;;5092202;28;20072;-79
2022/07/30 00:43:31;;;;;;;5.38;3.20;;;20.80;99.90;;;;;;5110184;28;20036;-78
2022/07/30 00:45:57;;;;;;;9.23;3.55;;;20.90;99.90;;;;;;5092025;28;20024;-81
2022/07/30 00:48:22;;;;;;;7.35;4.28;;;20.80;99.90;;;;;;5092203;28;20134;-81
2022/07/30 00:50:48;;;;;;;7.68;4.80;;;20.70;99.90;;;;;;5091390;28;20024;-81
2022/07/30 00:53:13;;;;;;;12.10;4.93;;;20.70;99.90;;;;;;5110579;28;20035;-81
2022/07/30 00:55:39;;;;;;;10.70;3.88;;;20.70;99.90;;;;;;5091510;28;20522;-81
2022/07/30 00:58:05;;;;;;;4.97;3.95;;;20.70;99.90;;;;;;5091801;28;20087;-79
2022/07/30 01:00:30;;;;;;;8.00;4.30;;;20.70;99.90;;;;;;5091345;28;20024;-79
2022/07/30 01:02:56;;;;;;;5.85;4.43;;;20.70;99.90;;;;;;5091739;28;20035;-80
2022/07/30 01:05:22;;;;;;;5.72;4.53;;;20.70;99.90;;;;;;5109774;28;20028;-79
2022/07/30 01:07:47;;;;;;;8.45;4.97;;;20.70;99.90;;;;;;5109608;28;20055;-80
2022/07/30 01:10:14;;;;;;;8.32;4.47;;;20.60;99.90;;;;;;5109706;28;20020;-80
2022/07/30 01:12:42;;;;;;;7.78;5.47;;;20.60;99.90;;;;;;5091817;28;20491;-79
2022/07/30 01:15:09;;;;;;;14.23;4.97;;;20.60;99.90;;;;;;5091471;28;20035;-80
2022/07/30 01:17:36;;;;;;;6.10;4.55;;;20.70;99.90;;;;;;5091591;28;20099;-80
2022/07/30 01:20:06;;;;;;;6.57;5.15;;;20.70;99.90;;;;;;5091375;28;20039;-80
2022/07/30 01:23:22;;;;;;;6.00;5.38;;;20.70;99.90;;;;;;5091158;28;20024;-80
2022/07/30 01:26:04;;;;;;;7.40;5.78;;;20.80;99.90;;;;;;4990103;28;20025;-80
2022/07/30 01:28:37;;;;;;;6.55;4.70;;;20.90;99.90;;;;;;4990298;28;20510;-80
2022/07/30 01:31:05;;;;;;;11.30;5.53;;;20.90;99.90;;;;;;5062274;28;20032;-80
2022/07/30 01:33:33;;;;;;;5.82;5.25;;;20.90;99.90;;;;;;5091136;28;20027;-81
2022/07/30 01:36:01;;;;;;;5.45;4.95;;;20.90;99.90;;;;;;5109919;28;20050;-80
2022/07/30 01:38:29;;;;;;;7.13;5.35;;;20.90;99.90;;;;;;5109462;28;20560;-81
2022/07/30 01:40:56;;;;;;;8.13;5.03;;;20.90;99.90;;;;;;5090563;28;20024;-80
2022/07/30 01:43:23;;;;;;;5.80;4.18;;;21.00;99.90;;;;;;5090783;28;20039;-80
2022/07/30 01:45:50;;;;;;;7.38;5.55;;;21.00;99.90;;;;;;5090275;28;20053;-80
2022/07/30 01:48:19;;;;;;;6.15;5.13;;;21.00;99.90;;;;;;5090926;28;20080;-78
2022/07/30 01:50:47;;;;;;;6.70;5.35;;;20.90;99.90;;;;;;5090310;28;20028;-79
2022/07/30 01:53:19;;;;;;;5.53;4.60;;;20.90;99.90;;;;;;5091087;28;20035;-80
2022/07/30 01:55:46;;;;;;;6.85;4.85;;;20.90;99.90;;;;;;5108552;28;20071;-79
2022/07/30 01:58:15;;;;;;;6.88;4.95;;;20.90;99.90;;;;;;5108562;28;20096;-80
2022/07/30 02:00:42;;;;;;;7.15;4.60;;;20.90;99.90;;;;;;5108774;28;20035;-80
2022/07/30 02:03:10;;;;;;;6.95;5.32;;;20.90;99.90;;;;;;5109507;28;20088;-81
2022/07/30 02:05:36;;;;;;;5.25;4.63;;;20.90;99.90;;;;;;5108476;28;20027;-79
2022/07/30 02:08:10;;;;;;;8.50;4.60;;;20.90;99.90;;;;;;5108681;28;20047;-80
2022/07/30 02:10:40;;;;;;;6.47;4.75;;;21.00;99.90;;;;;;5090264;28;20039;-81
2022/07/30 02:13:07;;;;;;;6.90;4.93;;;21.00;99.90;;;;;;5090368;28;20396;-80
2022/07/30 02:15:56;;;;;;;9.10;5.45;;;20.90;99.90;;;;;;5090458;28;20024;-80
2022/07/30 02:18:49;;;;;;;5.85;4.85;;;21.00;99.90;;;;;;5108496;28;20066;-80
2022/07/30 02:21:18;;;;;;;7.57;4.50;;;20.90;99.90;;;;;;5108326;28;20084;-81
2022/07/30 02:23:46;;;;;;;5.88;4.20;;;20.90;99.90;;;;;;5105748;28;20709;-82
2022/07/30 02:26:17;;;;;;;11.63;4.13;;;20.90;99.90;;;;;;5088457;28;20031;-81
2022/07/30 02:28:46;;;;;;;9.55;3.95;;;21.00;99.90;;;;;;5090473;28;20122;-80
2022/07/30 02:31:15;;;;;;;5.63;4.55;;;21.00;99.90;;;;;;5090725;28;20035;-80
2022/07/30 02:33:42;;;;;;;5.40;4.28;;;21.00;99.90;;;;;;5089965;28;20112;-79
2022/07/30 02:36:09;;;;;;;10.02;5.53;;;21.00;99.90;;;;;;5083544;28;20555;-81
2022/07/30 02:38:40;;;;;;;11.10;4.88;;;21.00;99.90;;;;;;5077129;28;20032;-81
2022/07/30 02:41:08;;;;;;;11.98;5.25;;;20.90;99.90;;;;;;5069243;28;20027;-79
2022/07/30 02:43:35;;;;;;;8.90;4.18;;;20.80;99.90;;;;;;5069347;28;20028;-79
2022/07/30 02:46:03;;;;;;;7.88;3.38;;;20.80;99.90;;;;;;5102778;28;20607;-78
2022/07/30 02:48:30;;;;;;;6.78;3.10;;;20.80;99.90;;;;;;5107763;28;20027;-80
2022/07/30 02:50:57;;;;;;;8.25;3.20;;;20.80;99.90;;;;;;5107480;28;20472;-79
2022/07/30 02:53:25;;;;;;;7.78;3.83;;;20.90;99.90;;;;;;5107968;28;20119;-80
2022/07/30 02:55:54;;;;;;;5.85;2.33;;;20.90;99.90;;;;;;5107503;28;20032;-80
2022/07/30 02:58:22;;;;;;;8.20;3.28;;;21.00;99.90;;;;;;5106972;28;20040;-80
2022/07/30 03:00:51;;;;;;;5.40;2.55;;;21.10;99.90;;;;;;5089548;28;20026;-79
2022/07/30 03:03:17;;;;;;;6.03;3.47;;;21.10;99.90;;;;;;5089600;28;20036;-80
2022/07/30 03:05:46;;;;;;;4.75;3.45;;;21.20;99.90;;;;;;5107286;28;20096;-79
2022/07/30 03:08:14;;;;;;;4.95;3.83;;;21.10;99.90;;;;;;5107622;28;20091;-80
2022/07/30 03:10:43;;;;;;;7.82;3.90;;;21.00;99.90;;;;;;5088560;28;20020;-79
2022/07/30 03:13:11;;;;;;;6.57;3.75;;;21.00;99.90;;;;;;5106956;28;20023;-80
2022/07/30 03:15:42;;;;;;;6.85;3.78;;;21.00;99.90;;;;;;5107564;28;20030;-77
2022/07/30 03:18:12;;;;;;;4.32;3.60;;;21.00;99.90;;;;;;5105373;28;20110;-79
2022/07/30 03:20:38;;;;;;;7.75;3.97;;;21.00;99.90;;;;;;5084022;28;20015;-79
2022/07/30 03:23:06;;;;;;;6.20;3.67;;;21.00;99.90;;;;;;5088931;28;20031;-81
2022/07/30 03:25:33;;;;;;;9.20;3.78;;;21.00;99.90;;;;;;5088418;28;20565;-77
2022/07/30 03:28:02;;;;;;;4.57;3.47;;;21.00;99.90;;;;;;5088793;28;20032;-79
2022/07/30 03:30:29;;;;;;;5.47;4.47;;;21.00;99.90;;;;;;5106955;28;20019;-78
2022/07/30 03:32:56;;;;;;;8.02;4.25;;;21.00;99.90;;;;;;5089067;28;20216;-79
2022/07/30 03:35:23;;;;;;;11.50;4.78;;;20.90;99.90;;;;;;5088793;28;20490;-80
2022/07/30 03:37:50;;;;;;;8.50;4.07;;;20.90;99.90;;;;;;5106696;28;20031;-80
2022/07/30 03:40:17;;;;;;;5.95;3.70;;;20.90;99.90;;;;;;5088715;28;20027;-79
2022/07/30 03:42:47;;;;;;;6.43;4.35;;;21.00;99.90;;;;;;5088633;28;20035;-79
2022/07/30 03:45:14;;;;;;;5.13;4.13;;;21.00;99.90;;;;;;5088274;28;20023;-80
2022/07/30 03:47:41;;;;;;;6.15;4.07;;;21.00;99.90;;;;;;5088251;28;20035;-78
2022/07/30 03:50:08;;;;;;;4.90;4.40;;;21.00;99.90;;;;;;5106446;28;20019;-79
2022/07/30 03:52:37;;;;;;;5.00;3.67;;;21.00;99.90;;;;;;5106936;28;20032;-79
2022/07/30 03:55:05;;;;;;;6.38;3.97;;;21.10;99.90;;;;;;5105277;28;20561;-79
2022/07/30 03:57:31;;;;;;;6.05;3.75;;;21.20;99.90;;;;;;5082787;28;20027;-80
2022/07/30 03:59:57;;;;;;;8.60;3.95;;;21.20;99.90;;;;;;5114606;27;20432;-78
2022/07/30 04:02:23;;;;;;;7.07;4.00;;;21.20;99.90;;;;;;5109177;28;20031;-78
2022/07/30 04:04:48;;;;;;;5.20;3.70;;;21.30;99.90;;;;;;5103142;28;20029;-79
2022/07/30 04:07:15;;;;;;;6.07;4.00;;;21.40;99.90;;;;;;5088393;28;20039;-81
2022/07/30 04:09:40;;;;;;;6.70;4.10;;;21.40;99.90;;;;;;5108400;28;20048;-79
2022/07/30 04:12:06;;;;;;;5.32;3.97;;;21.50;99.90;;;;;;5113223;28;20034;-79
2022/07/30 04:14:40;;;;;;;5.63;4.07;;;21.50;99.90;;;;;;5112915;28;20028;-79
2022/07/30 04:17:21;;;;;;;4.38;3.58;;;21.60;99.90;;;;;;5095022;28;20023;-81
2022/07/30 04:20:00;;;;;;;11.82;3.63;;;21.60;99.90;;;;;;5094920;28;20036;-82
2022/07/30 04:22:35;;;;;;;4.75;3.55;;;21.60;99.90;;;;;;5113389;28;20056;-80
2022/07/30 04:25:02;;;;;;;5.32;3.40;;;21.60;99.90;;;;;;5113329;28;20024;-82
2022/07/30 04:27:30;;;;;;;6.18;3.25;;;21.60;99.90;;;;;;5106720;28;20028;-79
2022/07/30 04:29:56;;;;;;;3.75;2.90;;;21.70;99.90;;;;;;5112785;28;20414;-80
2022/07/30 04:32:22;;;;;;;7.22;2.78;;;21.80;99.90;;;;;;5092958;28;20119;-81
2022/07/30 04:34:48;;;;;;;5.10;3.13;;;21.80;99.90;;;;;;5087035;28;20514;-80
2022/07/30 04:37:16;;;;;;;4.40;2.72;;;21.80;99.90;;;;;;5093106;28;20110;-80
2022/07/30 04:39:42;;;;;;;3.97;2.80;;;21.80;99.90;;;;;;5067839;28;20031;-81
2022/07/30 04:42:07;;;;;;;5.47;2.90;;;21.90;99.90;;;;;;5087041;28;20020;-79
2022/07/30 04:44:33;;;;;;;3.80;2.50;;;21.90;99.90;;;;;;5068641;28;20297;-80
2022/07/30 04:46:59;;;;;;;6.07;2.63;;;22.00;99.90;;;;;;5080205;28;20031;-80
2022/07/30 04:49:27;;;;;;;6.25;2.63;;;22.00;99.90;;;;;;5108845;28;20483;-78
2022/07/30 04:51:54;;;;;;;5.88;2.67;;;22.30;99.90;;;;;;5074927;28;20047;-79
2022/07/30 04:54:21;;;;;;;5.00;2.63;;;22.30;99.90;;;;;;5080983;28;20059;-79
2022/07/30 04:56:48;;;;;;;4.80;2.75;;;22.30;99.90;;;;;;5107278;28;20046;-79
2022/07/30 04:59:16;;;;;;;5.07;2.88;;;22.50;99.90;;;;;;5104749;28;20028;-78
2022/07/30 05:01:45;;;;;;;9.60;3.22;;;22.60;99.90;;;;;;5098866;28;20027;-80
2022/07/30 05:04:12;;;;;;;5.45;2.63;;;22.60;99.90;;;;;;5090432;28;20034;-80
2022/07/30 05:06:40;;;;;;;3.83;2.50;;;22.70;99.90;;;;;;5090133;28;20085;-78
2022/07/30 05:09:06;;;;;;;3.85;2.58;;;22.90;99.90;;;;;;5076778;28;20415;-79
2022/07/30 05:11:32;;;;;;;3.70;2.80;;;23.00;99.90;;;;;;5074116;28;20071;-78
2022/07/30 05:13:57;;;;;;;4.30;2.38;;;23.10;99.90;;;;;;5088528;28;20507;-81
2022/07/30 05:16:23;;;;;;;4.28;2.58;;;23.30;99.90;;;;;;5091003;28;20750;-79
2022/07/30 05:18:49;;;;;;;5.70;3.33;;;23.30;99.90;;;;;;5109332;28;20073;-79
2022/07/30 05:21:15;;;;;;;9.95;3.03;;;23.40;99.90;;;;;;5088729;28;20020;-79
2022/07/30 05:23:41;;;;;;;4.00;2.70;;;23.50;99.90;;;;;;5103940;28;20030;-79
2022/07/30 05:26:07;;;;;;;4.60;3.25;;;23.60;99.90;;;;;;5105307;28;20080;-78
2022/07/30 05:28:32;;;;;;;4.65;2.70;;;23.70;99.90;;;;;;5088000;28;20433;-78
2022/07/30 05:30:58;;;;;;;4.40;2.63;;;23.90;99.90;;;;;;5086378;28;20398;-79
2022/07/30 05:33:24;;;;;;;5.43;2.72;;;24.10;99.90;;;;;;5086918;28;20459;-80
2022/07/30 05:35:50;;;;;;;7.63;2.70;;;24.30;99.90;;;;;;5105280;28;20463;-78
2022/07/30 05:38:16;;;;;;;5.85;2.92;;;24.60;99.90;;;;;;5098824;27;20026;-77
2022/07/30 05:40:43;;;;;;;3.40;2.58;;;25.00;99.90;;;;;;5104880;28;20036;-79
2022/07/30 05:43:09;;;;;;;6.10;2.67;;;25.20;99.90;;;;;;5105006;28;20019;-78
2022/07/30 05:45:35;;;;;;;5.90;3.25;;;25.30;99.90;;;;;;5086849;28;20024;-79
2022/07/30 05:48:00;;;;;;;4.63;2.40;;;25.40;99.90;;;;;;5086266;28;20344;-79
2022/07/30 05:50:26;;;;;;;3.45;2.30;;;25.40;99.90;;;;;;5102065;28;20030;-79
2022/07/30 05:52:52;;;;;;;5.72;3.47;;;25.60;99.90;;;;;;5086604;28;20067;-79
2022/07/30 05:55:18;;;;;;;5.28;2.88;;;25.70;99.90;;;;;;5105305;28;20023;-80
2022/07/30 05:57:43;;;;;;;5.35;2.92;;;25.70;99.90;;;;;;5103762;28;20019;-80
2022/07/30 06:00:11;;;;;;;3.97;2.80;;;25.70;99.90;;;;;;5105379;28;20068;-77
2022/07/30 06:02:38;;;;;;;6.75;2.70;;;25.90;99.90;;;;;;5087079;28;20565;-79
2022/07/30 06:05:04;;;;;;;4.32;2.67;;;26.10;99.90;;;;;;5104181;28;20015;-80
2022/07/30 06:07:29;;;;;;;4.68;3.25;;;26.50;99.90;;;;;;5105020;28;20062;-81
2022/07/30 06:10:01;;;;;;;3.08;2.72;;;27.10;99.90;;;;;;5105047;28;20042;-79
2022/07/30 06:12:28;;;;;;;5.60;3.25;;;27.40;99.90;;;;;;5104919;28;20105;-79
2022/07/30 06:14:53;;;;;;;4.57;2.67;;;27.60;99.90;;;;;;5086016;28;20505;-80
2022/07/30 06:17:19;;;;;;;3.28;2.90;;;27.80;99.90;;;;;;5086569;28;20038;-80
2022/07/30 06:19:45;;;;;;;3.83;2.22;;;28.30;99.90;;;;;;5104851;28;20112;-79
2022/07/30 06:22:11;;;;;;;3.72;2.60;;;28.40;99.50;;;;;;5103027;27;20114;-79
2022/07/30 06:24:36;;;;;;;5.50;2.30;;;28.40;99.30;;;;;;5125402;27;20034;-79
2022/07/30 06:27:02;;;;;;;5.03;2.05;;;28.10;99.30;;;;;;5106371;27;20378;-80
2022/07/30 06:29:28;;;;;;;9.80;2.60;;;27.80;99.30;;;;;;5113954;27;20846;-80
2022/07/30 06:31:54;;;;;;;5.53;2.17;;;27.70;99.00;;;;;;5104586;28;20534;-80
2022/07/30 06:34:19;;;;;;;10.65;2.65;;;27.90;99.20;;;;;;5087868;28;20454;-80
2022/07/30 06:36:45;;;;;;;2.83;2.30;;;28.30;98.60;;;;;;5089684;28;20051;-80
2022/07/30 06:39:11;;;;;;;8.05;2.78;;;28.80;96.60;;;;;;5107867;28;20153;-80
2022/07/30 06:41:37;;;;;;;3.58;2.30;;;29.30;95.10;;;;;;5089765;28;20055;-80
2022/07/30 06:44:03;;;;;;;6.70;2.55;;;29.70;94.00;;;;;;5089535;28;20558;-80
2022/07/30 06:46:28;;;;;;;3.58;2.25;;;30.20;92.40;;;;;;5108160;28;20491;-80
2022/07/30 06:48:54;;;;;;;4.57;2.65;;;30.20;92.50;;;;;;5108009;28;20503;-79
2022/07/30 06:51:19;;;;;;;7.22;2.20;;;30.30;90.80;;;;;;5107487;28;20499;-79
2022/07/30 06:53:45;;;;;;;7.93;2.63;;;30.40;90.90;;;;;;5108045;28;20031;-80
2022/07/30 06:56:12;;;;;;;3.55;2.10;;;30.90;91.80;;;;;;5108361;28;20051;-80
2022/07/30 06:58:38;;;;;;;5.88;2.17;;;31.60;91.00;;;;;;5089329;28;20399;-80
2022/07/30 07:01:04;;;;;;;2.65;2.05;;;32.30;88.40;;;;;;5107786;28;20019;-79
2022/07/30 07:03:29;;;;;;;8.73;2.75;;;32.50;81.70;;;;;;5107852;28;20031;-81
2022/07/30 07:05:55;;;;;;;6.25;3.50;;;32.90;81.00;;;;;;5089399;28;20024;-80
2022/07/30 07:08:20;;;;;;;10.88;5.80;;;33.20;77.00;;;;;;5088627;28;20059;-80
2022/07/30 07:10:46;;;;;;;17.63;6.65;;;33.20;73.00;;;;;;5107480;28;20059;-81
2022/07/30 07:13:12;;;;;;;9.63;5.38;;;32.60;73.90;;;;;;5088556;28;20035;-80
2022/07/30 07:15:38;;;;;;;4.85;2.90;;;32.00;74.50;;;;;;5084837;28;20500;-79
2022/07/30 07:18:05;;;;;;;3.45;2.60;;;31.20;76.30;;;;;;5112880;27;20464;-79
2022/07/30 07:20:31;;;;;;;3.13;2.50;;;31.00;76.50;;;;;;5106435;27;20015;-79
2022/07/30 07:22:57;;;;;;;3.95;2.78;;;31.10;78.60;;;;;;5088589;28;20019;-79
2022/07/30 07:25:22;;;;;;;4.50;2.92;;;31.20;77.30;;;;;;5103408;28;20038;-78
2022/07/30 07:27:48;;;;;;;4.03;2.63;;;31.10;77.90;;;;;;5095795;28;20032;-79
2022/07/30 07:30:14;;;;;;;2.63;2.05;;;30.60;80.90;;;;;;5073359;28;20094;-82
2022/07/30 07:32:40;;;;;;;12.32;2.65;;;30.00;83.90;;;;;;5107281;27;20070;-81
2022/07/30 07:35:07;;;;;;;4.97;2.72;;;29.40;86.20;;;;;;5110896;27;20067;-81
2022/07/30 07:37:33;;;;;;;3.50;2.45;;;28.70;87.40;;;;;;5078511;27;20095;-79
2022/07/30 07:39:58;;;;;;;3.35;2.00;;;27.80;90.50;;;;;;5101161;27;20691;-81
2022/07/30 07:42:24;;;;;;;5.30;2.78;;;27.10;91.90;;;;;;5092205;27;20043;-82
2022/07/30 07:44:50;;;;;;;5.88;2.45;;;26.70;93.60;;;;;;5112841;27;20031;-81
2022/07/30 07:47:15;;;;;;;7.88;2.70;;;26.30;94.80;;;;;;5093761;27;20411;-80
2022/07/30 07:49:41;;;;;;;3.42;2.35;;;26.00;95.90;;;;;;5096024;27;20042;-80
2022/07/30 07:52:07;;;;;;;3.50;2.05;;;25.80;97.00;;;;;;5111814;27;20036;-79
2022/07/30 07:54:32;;;;;;;3.03;2.25;;;25.60;97.10;;;;;;5085569;28;20027;-81
2022/07/30 07:56:58;;;;;;;6.10;2.10;;;25.40;98.80;;;;;;5094177;27;20035;-81
2022/07/30 07:59:24;;;;;;;5.40;3.28;;;25.30;99.60;;;;;;5126552;28;20131;-81
2022/07/30 08:01:50;;;;;;;4.30;2.80;;;25.20;99.40;;;;;;5120181;27;20035;-79
2022/07/30 08:04:16;;;;;;;3.58;2.45;;;25.20;99.40;;;;;;5114059;27;20065;-80
2022/07/30 08:06:41;;;;;;;6.78;2.28;;;25.20;99.60;;;;;;5088652;28;20048;-81
2022/07/30 08:09:07;;;;;;;3.50;2.90;;;25.20;99.90;;;;;;5097027;27;20086;-81
2022/07/30 08:11:33;;;;;;;9.52;5.93;;;25.30;99.90;;;;;;5092313;28;20039;-80
2022/07/30 08:13:58;;;;;;;6.13;3.42;;;25.30;99.90;;;;;;5109289;27;20039;-80
2022/07/30 08:16:24;;;;;;;3.97;2.90;;;25.30;99.90;;;;;;5110458;27;20047;-78
2022/07/30 08:18:50;;;;;;;4.95;3.55;;;25.30;99.90;;;;;;5122079;27;20034;-78
2022/07/30 08:21:15;;;;;;;5.63;3.17;;;25.20;99.90;;;;;;5101137;28;20035;-78
2022/07/30 08:23:41;;;;;;;4.72;3.20;;;25.10;99.90;;;;;;5082761;28;20445;-80
2022/07/30 08:26:07;;;;;;;3.72;2.95;;;25.00;99.90;;;;;;5094657;28;20510;-79
2022/07/30 08:28:34;;;;;;;10.98;4.07;;;24.90;99.90;;;;;;5096027;28;20041;-78
2022/07/30 08:30:59;;;;;;;4.55;3.50;;;24.90;99.90;;;;;;5106444;28;20028;-79
2022/07/30 08:33:25;;;;;;;46.97;26.67;;;24.90;99.90;;;;;;5106595;28;20495;-79
2022/07/30 08:35:50;;;;;;;20.42;11.00;;;24.90;99.90;;;;;;5087467;28;20024;-79
2022/07/30 08:38:16;;;;;;;7.97;4.70;;;25.00;99.90;;;;;;5105835;28;20031;-79
2022/07/30 08:40:42;;;;;;;9.00;2.72;;;25.20;99.90;;;;;;5106509;28;20039;-80
2022/07/30 08:43:07;;;;;;;4.63;3.10;;;25.30;99.90;;;;;;5106190;28;20388;-79
2022/07/30 08:45:34;;;;;;;4.55;2.75;;;25.40;99.90;;;;;;5087665;28;20495;-80
2022/07/30 08:48:01;;;;;;;4.43;2.28;;;25.50;99.90;;;;;;5088183;28;20513;-79
2022/07/30 08:50:28;;;;;;;4.45;2.30;;;25.50;99.90;;;;;;5087550;28;20031;-80
2022/07/30 08:52:54;;;;;;;4.35;2.45;;;25.40;99.90;;;;;;5087793;28;20020;-80
2022/07/30 08:55:24;;;;;;;5.07;2.40;;;25.40;99.90;;;;;;5088042;28;20034;-81
2022/07/30 08:57:50;;;;;;;7.90;2.33;;;25.40;99.90;;;;;;5090323;28;20023;-79
2022/07/30 09:00:17;;;;;;;5.80;2.40;;;25.40;99.90;;;;;;5091354;28;20032;-79
2022/07/30 09:02:44;;;;;;;6.63;2.80;;;25.30;99.90;;;;;;5091997;28;20490;-80
2022/07/30 09:05:11;;;;;;;4.68;2.42;;;25.10;99.90;;;;;;5110126;28;20480;-80
2022/07/30 09:07:37;;;;;;;4.15;2.67;;;25.00;99.90;;;;;;5090805;28;20178;-79
2022/07/30 09:10:04;;;;;;;4.80;3.50;;;25.10;99.90;;;;;;5091776;28;20509;-79
2022/07/30 09:12:39;;;;;;;5.15;3.03;;;25.20;99.90;;;;;;5109348;28;20032;-80
2022/07/30 09:15:14;;;;;;;3.95;2.70;;;25.30;99.90;;;;;;5107971;28;20032;-80
2022/07/30 09:18:01;;;;;;;3.65;2.75;;;25.60;99.90;;;;;;5080761;28;20574;-80
2022/07/30 09:20:29;;;;;;;3.88;3.13;;;25.80;99.90;;;;;;5091071;28;20080;-80
2022/07/30 09:22:57;;;;;;;4.43;2.97;;;26.00;99.90;;;;;;5091350;28;20028;-79
2022/07/30 09:25:44;;;;;;;5.03;2.78;;;26.20;99.90;;;;;;5091724;28;20088;-80
2022/07/30 09:28:11;;;;;;;5.20;2.97;;;26.70;99.90;;;;;;5091610;27;20495;-78
2022/07/30 09:30:53;;;;;;;4.78;2.72;;;27.10;99.90;;;;;;5083023;28;20496;-78
2022/07/30 09:33:35;;;;;;;5.50;2.80;;;27.40;99.90;;;;;;5085663;28;20065;-79
2022/07/30 09:36:01;;;;;;;5.18;2.50;;;27.70;99.90;;;;;;5087496;28;20458;-79
2022/07/30 09:38:27;;;;;;;4.13;2.00;;;28.10;99.90;;;;;;5091926;28;20059;-80
2022/07/30 09:40:54;;;;;;;6.10;2.50;;;28.30;99.60;;;;;;5114090;27;20563;-79
2022/07/30 09:43:20;;;;;;;4.22;2.30;;;28.60;99.40;;;;;;5088265;28;20126;-79
2022/07/30 09:45:56;;;;;;;2.55;1.85;;;28.80;99.30;;;;;;5113123;27;20114;-80
2022/07/30 09:48:24;;;;;;;3.88;1.92;;;28.90;99.00;;;;;;5082922;27;20134;-80
2022/07/30 09:50:51;;;;;;;3.47;1.67;;;28.70;99.10;;;;;;5093317;27;20039;-79
2022/07/30 09:53:21;;;;;;;7.72;3.38;;;28.20;98.90;;;;;;5121389;27;20036;-79
2022/07/30 09:55:46;;;;;;;3.03;2.00;;;27.40;99.90;;;;;;5116697;27;20549;-79
2022/07/30 09:58:12;;;;;;;3.67;1.88;;;26.50;99.90;;;;;;5126296;27;20154;-79
2022/07/30 10:00:39;;;;;;;5.28;2.40;;;25.90;99.90;;;;;;5123828;27;20646;-80
2022/07/30 10:03:20;;;;;;;5.45;3.15;;;25.40;99.90;;;;;;5111436;27;20283;-79
2022/07/30 10:05:58;;;;;;;4.90;2.67;;;25.20;99.90;;;;;;5109094;27;20049;-80
2022/07/30 10:08:50;;;;;;;4.85;2.78;;;25.20;99.90;;;;;;5085413;27;20062;-79
2022/07/30 10:11:21;;;;;;;6.82;2.33;;;25.20;99.90;;;;;;5089879;27;20503;-79
2022/07/30 10:13:49;;;;;;;3.53;2.15;;;25.00;99.90;;;;;;5086743;27;20067;-79
2022/07/30 10:16:15;;;;;;;3.15;1.60;;;24.90;99.90;;;;;;5080354;28;20046;-79
2022/07/30 10:18:42;;;;;;;8.20;2.15;;;24.80;99.90;;;;;;5107118;28;20036;-80
2022/07/30 10:21:08;;;;;;;6.20;2.10;;;24.70;99.90;;;;;;5085913;28;20039;-78
2022/07/30 10:23:34;;;;;;;2.55;1.80;;;24.60;99.90;;;;;;5084534;27;20027;-81
2022/07/30 10:26:00;;;;;;;9.88;2.47;;;24.50;99.90;;;;;;5080019;27;20044;-80
2022/07/30 10:28:28;;;;;;;6.38;1.70;;;24.30;99.90;;;;;;5082081;27;20123;-80
2022/07/30 10:30:55;;;;;;;3.78;1.80;;;24.30;99.90;;;;;;5078660;27;20032;-80
2022/07/30 10:33:22;;;;;;;3.13;1.58;;;24.20;99.90;;;;;;5115594;27;20393;-80
2022/07/30 10:35:48;;;;;;;6.93;1.77;;;24.20;99.90;;;;;;5094331;27;20051;-79
2022/07/30 10:38:15;;;;;;;2.55;1.40;;;24.10;99.90;;;;;;5086698;27;20077;-80
2022/07/30 10:40:46;;;;;;;2.92;1.65;;;24.20;99.90;;;;;;5095411;27;20031;-79
2022/07/30 10:44:05;;;;;;;3.50;1.38;;;24.20;99.90;;;;;;5115805;27;20040;-80
2022/07/30 10:46:49;;;;;;;7.00;1.20;;;24.40;99.90;;;;;;5015024;28;20037;-80
2022/07/30 10:49:16;;;;;;;1.50;1.02;;;24.60;99.90;;;;;;5096241;27;20043;-80
2022/07/30 10:51:53;;;;;;;2.65;0.85;;;24.80;99.90;;;;;;5114153;27;20035;-80
2022/07/30 10:54:37;;;;;;;2.67;1.13;;;25.10;99.90;;;;;;5090920;27;20040;-81
2022/07/30 10:57:03;;;;;;;1.67;1.00;;;25.30;99.90;;;;;;5107432;28;20038;-81
2022/07/30 10:59:29;;;;;;;1.98;0.85;;;25.60;99.00;;;;;;5090076;28;20118;-80
2022/07/30 11:01:58;;;;;;;1.38;1.00;;;26.00;98.90;;;;;;5089091;28;20146;-81
2022/07/30 11:04:28;;;;;;;1.42;1.02;;;26.50;99.30;;;;;;5089461;28;20035;-79
2022/07/30 11:07:32;;;;;;;3.35;2.13;;;27.10;98.50;;;;;;5106257;28;20079;-80
2022/07/30 11:10:00;;;;;;;5.78;1.30;;;28.00;98.40;;;;;;5024000;28;20500;-80
2022/07/30 11:12:40;;;;;;;4.35;1.55;;;28.70;98.30;;;;;;5039886;28;20076;-80
2022/07/30 11:15:11;;;;;;;5.30;1.40;;;29.30;98.10;;;;;;5062865;28;20036;-80
2022/07/30 11:17:57;;;;;;;1.52;0.90;;;29.80;97.40;;;;;;5106738;28;20078;-80
2022/07/30 11:20:22;;;;;;;5.90;1.42;;;30.00;96.30;;;;;;5099631;28;20119;-80
2022/07/30 11:22:48;;;;;;;3.63;1.80;;;29.70;95.90;;;;;;5100679;27;20125;-81
2022/07/30 11:25:26;;;;;;;4.22;2.28;;;29.30;95.50;;;;;;5102384;27;20111;-81
2022/07/30 11:27:52;;;;;;;3.60;2.80;;;28.90;96.60;;;;;;5069475;28;20042;-80
2022/07/30 11:30:21;;;;;;;4.25;2.90;;;28.40;97.80;;;;;;5115588;27;20027;-80
2022/07/30 11:32:52;;;;;;;9.13;3.42;;;28.00;98.80;;;;;;5119679;27;20031;-80
2022/07/30 11:35:24;;;;;;;6.00;3.63;;;27.40;99.90;;;;;;5122292;27;20044;-79
2022/07/30 11:38:05;;;;;;;6.30;2.85;;;26.90;99.90;;;;;;5086124;28;20040;-79
2022/07/30 11:40:49;;;;;;;4.97;2.55;;;26.40;99.90;;;;;;5114420;27;20043;-80
2022/07/30 11:43:35;;;;;;;2.55;1.67;;;25.80;99.90;;;;;;5087466;27;20168;-80
2022/07/30 11:46:06;;;;;;;8.82;1.90;;;25.50;99.90;;;;;;5083960;28;20507;-82
2022/07/30 11:48:33;;;;;;;5.18;2.17;;;25.00;99.90;;;;;;5115810;27;20047;-83
2022/07/30 11:50:59;;;;;;;8.05;2.00;;;24.40;99.90;;;;;;5083905;27;20518;-83
2022/07/30 11:53:24;;;;;;;8.45;2.53;;;24.00;99.90;;;;;;5083283;27;20028;-82
2022/07/30 11:55:59;;;;;;;25.90;5.93;;;23.60;99.90;;;;;;5093578;27;20039;-83
2022/07/30 11:58:32;;;;;;;10.73;3.17;;;23.20;99.90;;;;;;5085819;27;20747;-83
2022/07/30 12:01:10;;;;;;;12.55;3.75;;;22.90;99.90;;;;;;5085501;28;20487;-84
2022/07/30 12:03:39;;;;;;;17.38;4.30;;;22.60;99.90;;;;;;5083996;28;20036;-85
2022/07/30 12:06:08;;;;;;;12.18;4.18;;;22.30;99.90;;;;;;5073305;28;20132;-84
2022/07/30 12:08:42;;;;;;;7.22;2.97;;;21.80;99.90;;;;;;5076003;28;20111;-80
2022/07/30 12:11:07;;;;;;;9.73;2.97;;;21.60;99.90;;;;;;5111854;27;20057;-83
2022/07/30 12:13:33;;;;;;;7.95;2.67;;;21.40;99.90;;;;;;5090214;28;20499;-81
2022/07/30 12:15:59;;;;;;;9.85;2.75;;;21.30;99.90;;;;;;5083125;27;20489;-80
2022/07/30 12:18:27;;;;;;;4.05;2.17;;;21.20;99.90;;;;;;5103398;27;20023;-80
2022/07/30 12:21:04;;;;;;;3.67;2.05;;;21.10;99.90;;;;;;5068992;28;20036;-80
2022/07/30 12:23:30;;;;;;;2.53;1.60;;;21.30;99.90;;;;;;5075725;28;20151;-81
2022/07/30 12:25:56;;;;;;;5.38;2.17;;;21.30;99.90;;;;;;5076135;28;20260;-80
2022/07/30 12:28:25;;;;;;;8.30;1.70;;;21.40;99.90;;;;;;5072567;28;20475;-80
2022/07/30 12:30:53;;;;;;;6.25;1.40;;;21.50;99.90;;;;;;5067341;28;20086;-81
2022/07/30 12:33:19;;;;;;;2.20;1.30;;;21.70;99.90;;;;;;5083471;28;20067;-80
2022/07/30 12:35:50;;;;;;;3.33;1.30;;;21.70;99.90;;;;;;5090977;27;20040;-80
2022/07/30 12:38:18;;;;;;;3.03;1.40;;;21.80;99.90;;;;;;5110384;27;20088;-79
2022/07/30 12:40:50;;;;;;;2.58;1.20;;;21.90;99.90;;;;;;5089559;28;20036;-80
2022/07/30 12:43:16;;;;;;;5.68;1.48;;;22.10;99.90;;;;;;5089582;28;20720;-80
2022/07/30 12:45:42;;;;;;;1.85;0.98;;;22.10;99.90;;;;;;5087430;28;20044;-80
2022/07/30 12:48:11;;;;;;;2.55;0.90;;;22.30;99.90;;;;;;5109907;27;20395;-79
2022/07/30 12:50:37;;;;;;;1.65;1.05;;;22.40;99.90;;;;;;5109798;27;20028;-80
2022/07/30 12:53:03;;;;;;;5.15;0.90;;;22.50;99.90;;;;;;5111169;27;20051;-79